createdAt,value
2022-12-08T00:02:20.909Z,20.34
2022-12-08T00:05:06.739Z,20.61
2022-12-08T00:07:52.551Z,20.81
2022-12-08T00:10:48.040Z,21.01
2022-12-08T00:13:06.018Z,21.13
2022-12-08T00:15:32.889Z,21.22
2022-12-08T00:17:59.652Z,21.31
2022-12-08T00:20:26.410Z,21.42
2022-12-08T00:22:53.196Z,21.44
2022-12-08T00:25:20.050Z,21.58
2022-12-08T00:27:46.823Z,21.58
2022-12-08T00:30:13.568Z,21.74
2022-12-08T00:32:40.508Z,21.70
2022-12-08T00:35:07.294Z,19.81
2022-12-08T00:37:34.153Z,18.08
2022-12-08T00:40:01.016Z,18.09
2022-12-08T00:42:27.936Z,19.58
2022-12-08T00:44:54.692Z,20.09
2022-12-08T00:47:24.868Z,20.47
2022-12-08T00:49:51.966Z,20.67
2022-12-08T00:52:18.718Z,20.84
2022-12-08T00:54:45.475Z,20.98
2022-12-08T00:57:12.264Z,21.10
2022-12-08T00:59:39.093Z,21.26
2022-12-08T01:02:05.861Z,21.27
2022-12-08T01:04:32.644Z,21.38
2022-12-08T01:06:59.467Z,21.44
2022-12-08T01:09:26.275Z,21.51
2022-12-08T01:11:53.048Z,21.60
2022-12-08T01:14:19.799Z,21.59
2022-12-08T01:16:46.544Z,21.16
2022-12-08T01:19:13.346Z,18.56
2022-12-08T01:21:40.100Z,17.72
2022-12-08T01:24:07.150Z,18.97
2022-12-08T01:26:34.021Z,19.85
2022-12-08T01:29:00.799Z,20.28
2022-12-08T01:31:27.593Z,20.51
2022-12-08T01:33:54.427Z,20.78
2022-12-08T01:36:21.236Z,20.82
2022-12-08T01:38:48.138Z,20.98
2022-12-08T01:41:14.886Z,21.10
2022-12-08T01:43:41.675Z,21.19
2022-12-08T01:46:08.509Z,21.26
2022-12-08T01:48:35.428Z,21.40
2022-12-08T01:51:02.301Z,21.45
2022-12-08T01:53:29.089Z,21.53
2022-12-08T01:55:55.841Z,21.60
2022-12-08T01:58:22.844Z,21.74
2022-12-08T02:00:49.566Z,21.67
2022-12-08T02:03:16.293Z,20.01
2022-12-08T02:05:43.075Z,17.96
2022-12-08T02:08:10.063Z,17.90
2022-12-08T02:10:36.908Z,19.85
2022-12-08T02:13:03.654Z,20.09
2022-12-08T02:15:30.405Z,20.40
2022-12-08T02:17:57.222Z,20.68
2022-12-08T02:20:24.109Z,20.84
2022-12-08T02:22:50.839Z,20.97
2022-12-08T02:25:17.748Z,21.04
2022-12-08T02:27:44.696Z,21.16
2022-12-08T02:30:11.476Z,21.33
2022-12-08T02:32:38.248Z,21.34
2022-12-08T02:35:04.990Z,21.48
2022-12-08T02:37:31.744Z,21.51
2022-12-08T02:39:58.480Z,21.52
2022-12-08T02:42:25.323Z,21.64
2022-12-08T02:44:52.112Z,21.69
2022-12-08T02:47:19.088Z,21.71
2022-12-08T02:49:45.837Z,19.05
2022-12-08T02:52:12.641Z,17.64
2022-12-08T02:54:39.382Z,18.30
2022-12-08T02:57:06.202Z,19.63
2022-12-08T02:59:33.911Z,20.09
2022-12-08T03:02:00.685Z,20.36
2022-12-08T03:04:27.637Z,20.60
2022-12-08T03:06:54.492Z,20.82
2022-12-08T03:09:21.236Z,20.89
2022-12-08T03:11:48.687Z,21.07
2022-12-08T03:14:15.650Z,21.19
2022-12-08T03:16:42.372Z,21.21
2022-12-08T03:19:09.439Z,21.31
2022-12-08T03:21:36.249Z,21.42
2022-12-08T03:24:03.225Z,21.43
2022-12-08T03:26:30.001Z,21.54
2022-12-08T03:28:56.723Z,21.55
2022-12-08T03:31:23.716Z,21.66
2022-12-08T03:33:50.962Z,20.27
2022-12-08T03:36:17.744Z,18.34
2022-12-08T03:38:44.568Z,17.74
2022-12-08T03:41:20.762Z,19.10
2022-12-08T03:43:47.714Z,19.95
2022-12-08T03:46:14.656Z,20.33
2022-12-08T03:48:42.614Z,20.55
2022-12-08T03:51:09.370Z,20.74
2022-12-08T03:53:36.120Z,20.92
2022-12-08T03:56:02.860Z,21.02
2022-12-08T03:58:34.292Z,21.07
2022-12-08T04:01:03.871Z,21.15
2022-12-08T04:03:30.623Z,21.36
2022-12-08T04:05:57.385Z,21.38
2022-12-08T04:08:24.157Z,21.48
2022-12-08T04:10:50.938Z,21.51
2022-12-08T04:13:17.676Z,21.59
2022-12-08T04:15:44.446Z,21.64
2022-12-08T04:18:11.201Z,21.67
2022-12-08T04:20:37.934Z,19.97
2022-12-08T04:23:04.678Z,18.10
2022-12-08T04:25:31.723Z,17.73
2022-12-08T04:27:58.465Z,19.37
2022-12-08T04:30:25.211Z,19.92
2022-12-08T04:32:51.944Z,20.22
2022-12-08T04:35:18.716Z,20.51
2022-12-08T04:37:45.461Z,20.63
2022-12-08T04:40:12.389Z,20.78
2022-12-08T04:42:39.113Z,20.97
2022-12-08T04:45:05.869Z,20.98
2022-12-08T04:47:32.809Z,21.11
2022-12-08T04:49:59.539Z,21.15
2022-12-08T04:52:26.306Z,21.28
2022-12-08T04:54:53.039Z,21.36
2022-12-08T04:57:19.800Z,21.38
2022-12-08T04:59:46.546Z,21.49
2022-12-08T05:02:13.613Z,21.57
2022-12-08T05:04:40.447Z,21.63
2022-12-08T05:07:07.204Z,21.67
2022-12-08T05:09:34.224Z,19.21
2022-12-08T05:12:00.960Z,17.93
2022-12-08T05:14:27.826Z,18.57
2022-12-08T05:16:54.569Z,19.74
2022-12-08T05:19:21.329Z,20.18
2022-12-08T05:21:48.095Z,20.40
2022-12-08T05:24:14.812Z,20.67
2022-12-08T05:26:41.545Z,20.80
2022-12-08T05:29:08.283Z,20.91
2022-12-08T05:31:35.147Z,21.09
2022-12-08T05:34:03.302Z,21.19
2022-12-08T05:36:30.412Z,21.22
2022-12-08T05:38:57.529Z,21.39
2022-12-08T05:41:24.259Z,21.45
2022-12-08T05:43:51.052Z,21.52
2022-12-08T05:46:17.838Z,21.54
2022-12-08T05:48:44.661Z,21.61
2022-12-08T05:51:11.429Z,19.61
2022-12-08T05:53:38.153Z,17.96
2022-12-08T05:56:04.886Z,17.98
2022-12-08T05:58:31.651Z,19.59
2022-12-08T06:00:58.384Z,20.05
2022-12-08T06:03:25.263Z,20.37
2022-12-08T06:05:52.139Z,20.59
2022-12-08T06:08:19.021Z,20.71
2022-12-08T06:10:46.017Z,20.96
2022-12-08T06:13:13.063Z,21.01
2022-12-08T06:15:39.802Z,21.12
2022-12-08T06:18:06.682Z,21.25
2022-12-08T06:20:33.477Z,21.34
2022-12-08T06:23:00.286Z,21.35
2022-12-08T06:25:27.005Z,21.48
2022-12-08T06:27:53.786Z,21.53
2022-12-08T06:30:20.509Z,21.66
2022-12-08T06:32:47.305Z,21.66
2022-12-08T06:35:14.083Z,19.24
2022-12-08T06:37:40.813Z,17.86
2022-12-08T06:40:07.741Z,18.44
2022-12-08T06:42:43.519Z,19.68
2022-12-08T06:45:10.249Z,20.17
2022-12-08T06:47:37.091Z,20.40
2022-12-08T06:50:04.238Z,20.74
2022-12-08T06:52:31.193Z,20.85
2022-12-08T06:54:58.014Z,20.95
2022-12-08T06:57:25.598Z,21.11
2022-12-08T06:59:52.330Z,21.13
2022-12-08T07:02:19.336Z,21.31
2022-12-08T07:04:46.181Z,21.31
2022-12-08T07:07:13.039Z,21.42
2022-12-08T07:09:39.821Z,21.44
2022-12-08T07:12:06.661Z,21.54
2022-12-08T07:14:33.525Z,21.63
2022-12-08T07:17:00.510Z,21.75
2022-12-08T07:19:27.319Z,19.48
2022-12-08T07:21:54.087Z,18.19
2022-12-08T07:24:20.849Z,18.59
2022-12-08T07:26:47.600Z,19.73
2022-12-08T07:29:14.330Z,20.28
2022-12-08T07:31:41.055Z,20.50
2022-12-08T07:34:07.821Z,20.68
2022-12-08T07:36:34.610Z,20.86
2022-12-08T07:39:01.446Z,20.96
2022-12-08T07:41:28.382Z,21.15
2022-12-08T07:43:55.165Z,21.25
2022-12-08T07:46:22.030Z,21.40
2022-12-08T07:48:49.068Z,21.42
2022-12-08T07:51:15.851Z,21.45
2022-12-08T07:53:43.888Z,21.58
2022-12-08T07:56:12.105Z,21.67
2022-12-08T07:58:38.945Z,20.95
2022-12-08T08:01:05.858Z,18.35
2022-12-08T08:03:32.875Z,17.66
2022-12-08T08:05:59.632Z,19.25
2022-12-08T08:08:26.428Z,19.99
2022-12-08T08:10:53.227Z,20.39
2022-12-08T08:13:20.033Z,20.58
2022-12-08T08:15:46.880Z,20.83
2022-12-08T08:18:13.736Z,20.94
2022-12-08T08:20:40.457Z,21.08
2022-12-08T08:23:07.222Z,21.22
2022-12-08T08:25:33.990Z,21.32
2022-12-08T08:28:00.826Z,21.39
2022-12-08T08:30:27.561Z,21.49
2022-12-08T08:32:54.460Z,21.58
2022-12-08T08:35:21.209Z,21.57
2022-12-08T08:37:49.427Z,21.72
2022-12-08T08:40:16.416Z,19.37
2022-12-08T08:42:43.148Z,17.98
2022-12-08T08:45:09.880Z,19.08
2022-12-08T08:47:36.618Z,19.91
2022-12-08T08:50:03.913Z,20.43
2022-12-08T08:52:31.043Z,20.63
2022-12-08T08:54:57.821Z,20.86
2022-12-08T08:57:25.986Z,21.02
2022-12-08T08:59:53.115Z,21.14
2022-12-08T09:02:19.954Z,21.24
2022-12-08T09:04:46.933Z,21.29
2022-12-08T09:07:13.784Z,21.49
2022-12-08T09:09:40.543Z,21.62
2022-12-08T09:12:07.448Z,21.60
2022-12-08T09:14:34.207Z,21.47
2022-12-08T09:17:00.949Z,18.66
2022-12-08T09:19:27.759Z,18.12
2022-12-08T09:21:54.492Z,19.59
2022-12-08T09:24:21.236Z,20.25
2022-12-08T09:26:48.215Z,20.54
2022-12-08T09:29:15.150Z,20.83
2022-12-08T09:31:42.195Z,21.01
2022-12-08T09:34:09.100Z,21.16
2022-12-08T09:36:35.844Z,21.19
2022-12-08T09:39:02.615Z,21.34
2022-12-08T09:41:36.553Z,21.45
2022-12-08T09:44:05.911Z,21.53
2022-12-08T09:46:32.752Z,21.64
2022-12-08T09:48:59.567Z,21.22
2022-12-08T09:51:26.323Z,18.67
2022-12-08T09:53:53.185Z,17.48
2022-12-08T09:56:20.024Z,18.83
2022-12-08T09:58:47.506Z,19.79
2022-12-08T10:01:14.276Z,20.31
2022-12-08T10:03:41.009Z,20.52
2022-12-08T10:06:07.787Z,20.72
2022-12-08T10:08:34.624Z,20.92
2022-12-08T10:11:01.389Z,21.07
2022-12-08T10:13:28.145Z,21.17
2022-12-08T10:15:54.908Z,21.38
2022-12-08T10:18:21.693Z,21.39
2022-12-08T10:20:48.459Z,21.49
2022-12-08T10:23:15.303Z,21.52
2022-12-08T10:25:42.180Z,21.64
2022-12-08T10:28:08.931Z,21.70
2022-12-08T10:30:35.781Z,19.09
2022-12-08T10:33:02.567Z,17.76
2022-12-08T10:35:29.342Z,18.19
2022-12-08T10:37:57.108Z,19.77
2022-12-08T10:40:23.945Z,20.29
2022-12-08T10:42:50.689Z,20.64
2022-12-08T10:45:17.424Z,20.70
2022-12-08T10:47:45.447Z,20.89
2022-12-08T10:50:13.300Z,21.05
2022-12-08T10:52:40.105Z,21.11
2022-12-08T10:55:06.881Z,21.29
2022-12-08T10:57:33.620Z,21.32
2022-12-08T11:00:00.419Z,21.45
2022-12-08T11:02:27.312Z,21.49
2022-12-08T11:04:54.145Z,21.58
2022-12-08T11:07:20.872Z,21.23
2022-12-08T11:09:48.821Z,18.90
2022-12-08T11:12:15.728Z,17.67
2022-12-08T11:14:42.488Z,18.71
2022-12-08T11:17:09.240Z,19.75
2022-12-08T11:19:35.984Z,20.22
2022-12-08T11:22:03.777Z,20.55
2022-12-08T11:24:36.070Z,20.75
2022-12-08T11:27:04.205Z,20.89
2022-12-08T11:29:30.954Z,21.01
2022-12-08T11:31:57.827Z,21.15
2022-12-08T11:34:24.682Z,21.23
2022-12-08T11:36:51.443Z,21.33
2022-12-08T11:39:18.222Z,21.47
2022-12-08T11:41:45.753Z,21.55
2022-12-08T11:44:12.493Z,21.60
2022-12-08T11:46:39.520Z,21.73
2022-12-08T11:49:07.249Z,20.18
2022-12-08T11:51:34.089Z,18.41
2022-12-08T11:54:00.856Z,17.51
2022-12-08T11:56:27.637Z,19.24
2022-12-08T11:58:54.419Z,20.06
2022-12-08T12:01:21.239Z,20.34
2022-12-08T12:03:48.091Z,20.65
2022-12-08T12:06:53.698Z,20.85
2022-12-08T12:09:01.669Z,20.94
2022-12-08T12:11:47.201Z,21.10
2022-12-08T12:14:13.971Z,21.23
2022-12-08T12:16:40.775Z,21.24
2022-12-08T12:19:07.563Z,21.39
2022-12-08T12:21:34.308Z,21.52
2022-12-08T12:24:01.059Z,21.55
2022-12-08T12:26:27.797Z,21.65
2022-12-08T12:28:54.736Z,19.26
2022-12-08T12:31:21.517Z,17.80
2022-12-08T12:33:48.335Z,18.21
2022-12-08T12:36:15.134Z,19.60
2022-12-08T12:39:00.652Z,20.16
2022-12-08T12:41:27.437Z,20.39
2022-12-08T12:43:54.196Z,20.63
2022-12-08T12:46:20.983Z,20.83
2022-12-08T12:48:47.788Z,20.97
2022-12-08T12:51:14.520Z,21.14
2022-12-08T12:53:41.250Z,21.18
2022-12-08T12:56:09.944Z,21.30
2022-12-08T12:58:36.762Z,21.44
2022-12-08T13:01:03.557Z,21.50
2022-12-08T13:03:30.325Z,21.60
2022-12-08T13:05:57.061Z,21.66
2022-12-08T13:08:23.920Z,21.23
2022-12-08T13:10:50.813Z,19.16
2022-12-08T13:13:17.777Z,17.65
2022-12-08T13:15:44.708Z,18.62
2022-12-08T13:18:11.477Z,19.75
2022-12-08T13:20:38.203Z,20.28
2022-12-08T13:23:04.988Z,20.56
2022-12-08T13:25:36.658Z,20.71
2022-12-08T13:28:03.768Z,21.00
2022-12-08T13:30:30.534Z,21.02
2022-12-08T13:35:44.100Z,21.20
2022-12-08T13:38:10.879Z,21.33
2022-12-08T13:40:37.651Z,21.49
2022-12-08T13:43:04.399Z,21.57
2022-12-08T13:46:20.121Z,21.61
2022-12-08T13:48:35.115Z,21.68
2022-12-08T13:59:28.100Z,20.14
2022-12-08T14:01:54.994Z,20.51
2022-12-08T14:04:47.484Z,20.71
2022-12-08T14:07:08.884Z,20.96
2022-12-08T14:09:35.706Z,21.08
2022-12-08T14:12:03.325Z,21.24
2022-12-08T14:15:00.579Z,21.26
2022-12-08T14:17:17.210Z,21.42
2022-12-08T14:19:44.015Z,21.45
2022-12-08T14:22:11.969Z,21.50
2022-12-08T14:24:38.691Z,21.62
2022-12-08T14:27:05.437Z,20.61
2022-12-08T14:29:32.250Z,18.63
2022-12-08T14:31:59.068Z,18.04
2022-12-08T14:34:25.853Z,19.02
2022-12-08T14:36:52.765Z,19.93
2022-12-08T14:39:19.492Z,20.35
2022-12-08T14:41:46.236Z,20.61
2022-12-08T14:44:12.989Z,20.81
2022-12-08T14:46:40.050Z,20.94
2022-12-08T14:49:07.041Z,21.10
2022-12-08T14:51:33.782Z,21.19
2022-12-08T14:54:00.557Z,21.28
2022-12-08T14:56:27.445Z,21.39
2022-12-08T14:58:54.183Z,21.49
2022-12-08T15:01:20.978Z,21.58
2022-12-08T15:03:51.237Z,21.69
2022-12-08T15:06:18.329Z,21.64
2022-12-08T15:08:45.068Z,19.77
2022-12-08T15:11:11.822Z,18.39
2022-12-08T15:13:38.668Z,18.34
2022-12-08T15:16:06.289Z,19.47
2022-12-08T15:18:33.395Z,20.13
2022-12-08T15:21:00.274Z,20.58
2022-12-08T15:23:27.096Z,20.87
2022-12-08T15:25:53.858Z,20.97
2022-12-08T15:28:22.070Z,21.03
2022-12-08T15:30:50.821Z,21.16
2022-12-08T15:33:17.606Z,21.21
2022-12-08T15:35:44.391Z,21.31
2022-12-08T15:38:11.177Z,21.41
2022-12-08T15:40:37.961Z,21.45
2022-12-08T15:43:04.830Z,21.56
2022-12-08T15:45:31.755Z,21.68
2022-12-08T15:47:58.928Z,20.94
2022-12-08T15:50:25.772Z,18.91
2022-12-08T15:52:52.598Z,18.04
2022-12-08T15:55:19.507Z,18.95
2022-12-08T15:58:51.151Z,19.82
2022-12-08T16:03:49.453Z,20.66
2022-12-08T16:06:57.620Z,20.91
2022-12-08T16:09:06.277Z,21.14
2022-12-08T16:12:06.351Z,21.13
2022-12-08T16:17:20.584Z,21.43
2022-12-08T16:19:47.496Z,21.47
2022-12-08T16:25:14.636Z,21.60
2022-12-08T16:28:08.370Z,20.49
2022-12-08T16:30:31.965Z,18.60
2022-12-08T16:32:58.848Z,18.24
2022-12-08T16:35:25.742Z,19.23
2022-12-08T16:37:52.514Z,19.97
2022-12-08T16:40:19.277Z,20.45
2022-12-08T16:42:48.582Z,20.67
2022-12-08T16:45:15.378Z,20.87
2022-12-08T16:47:42.128Z,21.02
2022-12-08T16:50:08.961Z,21.05
2022-12-08T16:52:35.787Z,21.20
2022-12-08T16:55:02.844Z,21.31
2022-12-08T16:57:30.158Z,21.38
2022-12-08T16:59:56.955Z,21.40
2022-12-08T17:02:23.683Z,21.48
2022-12-08T17:04:50.440Z,21.60
2022-12-08T17:07:17.277Z,21.64
2022-12-08T17:09:44.294Z,20.50
2022-12-08T17:12:11.105Z,18.69
2022-12-08T17:14:37.882Z,18.17
2022-12-08T17:17:04.941Z,19.17
2022-12-08T17:19:31.835Z,20.01
2022-12-08T17:21:58.789Z,20.43
2022-12-08T17:24:28.872Z,20.70
2022-12-08T17:26:55.628Z,20.81
2022-12-08T17:29:22.487Z,20.99
2022-12-08T17:31:49.376Z,21.14
2022-12-08T17:34:16.233Z,21.15
2022-12-08T17:36:42.980Z,21.31
2022-12-08T17:39:13.438Z,21.39
2022-12-08T17:41:43.418Z,21.45
2022-12-08T17:44:10.261Z,21.52
2022-12-08T17:46:41.629Z,21.20
2022-12-08T17:49:09.537Z,19.21
2022-12-08T17:51:36.314Z,18.29
2022-12-08T17:54:03.038Z,18.95
2022-12-08T17:56:29.821Z,19.76
2022-12-08T17:58:56.645Z,20.25
2022-12-08T18:01:23.745Z,20.58
2022-12-08T18:03:50.640Z,20.72
2022-12-08T18:06:17.621Z,20.85
2022-12-08T18:08:44.444Z,21.07
2022-12-08T18:11:11.218Z,21.10
2022-12-08T18:13:37.960Z,21.28
2022-12-08T18:16:04.892Z,21.28
2022-12-08T18:18:31.629Z,21.36
2022-12-08T18:20:58.372Z,21.44
2022-12-08T18:23:25.112Z,21.55
2022-12-08T18:25:51.897Z,21.62
2022-12-08T18:28:18.661Z,21.59
2022-12-08T18:30:45.458Z,19.64
2022-12-08T18:33:12.246Z,18.22
2022-12-08T18:35:38.992Z,18.45
2022-12-08T18:38:05.730Z,19.49
2022-12-08T18:40:32.490Z,20.17
2022-12-08T18:42:59.238Z,20.56
2022-12-08T18:45:25.979Z,20.76
2022-12-08T18:47:52.754Z,20.90
2022-12-08T18:50:19.556Z,21.03
2022-12-08T18:52:46.343Z,21.20
2022-12-08T18:55:13.162Z,21.24
2022-12-08T18:57:39.919Z,21.30
2022-12-08T19:00:06.874Z,21.39
2022-12-08T19:02:33.934Z,21.50
2022-12-08T19:05:01.175Z,21.57
2022-12-08T19:07:27.985Z,21.56
2022-12-08T19:09:56.016Z,21.65
2022-12-08T19:12:22.765Z,19.86
2022-12-08T19:14:49.630Z,18.20
2022-12-08T19:17:16.437Z,17.89
2022-12-08T19:19:43.169Z,19.54
2022-12-08T19:22:10.103Z,20.13
2022-12-08T19:24:36.863Z,20.47
2022-12-08T19:27:03.616Z,20.62
2022-12-08T19:29:30.391Z,20.77
2022-12-08T19:31:57.306Z,21.01
2022-12-08T19:34:24.039Z,21.02
2022-12-08T19:36:50.859Z,21.21
2022-12-08T19:39:36.565Z,21.34
2022-12-08T19:42:21.988Z,21.47
2022-12-08T19:44:54.644Z,21.46
2022-12-08T19:47:21.517Z,21.54
2022-12-08T19:49:48.366Z,21.59
2022-12-08T19:52:15.289Z,20.55
2022-12-08T19:54:42.130Z,18.55
2022-12-08T19:57:09.615Z,17.54
2022-12-08T19:59:36.414Z,18.98
2022-12-08T20:02:03.300Z,19.86
2022-12-08T20:04:30.078Z,20.28
2022-12-08T20:06:56.922Z,20.46
2022-12-08T20:09:23.696Z,20.74
2022-12-08T20:11:54.678Z,20.91
2022-12-08T20:14:21.734Z,21.00
2022-12-08T20:16:48.659Z,21.02
2022-12-08T20:19:15.548Z,21.19
2022-12-08T20:21:42.403Z,21.27
2022-12-08T20:24:09.202Z,21.36
2022-12-08T20:26:35.951Z,21.47
2022-12-08T20:29:02.786Z,21.56
2022-12-08T20:31:29.656Z,21.61
2022-12-08T20:33:56.468Z,21.67
2022-12-08T20:36:23.636Z,19.33
2022-12-08T20:38:50.468Z,17.83
2022-12-08T20:41:17.371Z,18.20
2022-12-08T20:43:44.268Z,19.64
2022-12-08T20:46:11.022Z,20.12
2022-12-08T20:48:38.087Z,20.45
2022-12-08T20:51:05.048Z,20.64
2022-12-08T20:53:31.970Z,20.89
2022-12-08T20:55:58.920Z,21.00
2022-12-08T20:58:25.754Z,21.06
2022-12-08T21:00:52.844Z,21.17
2022-12-08T21:03:19.838Z,21.23
2022-12-08T21:05:46.849Z,21.40
2022-12-08T21:08:14.210Z,21.50
2022-12-08T21:10:44.028Z,21.48
2022-12-08T21:13:11.359Z,21.60
2022-12-08T21:15:38.201Z,21.53
2022-12-08T21:18:05.116Z,19.24
2022-12-08T21:20:32.127Z,17.62
2022-12-08T21:22:59.072Z,18.40
2022-12-08T21:25:25.808Z,19.83
2022-12-08T21:27:52.907Z,20.18
2022-12-08T21:30:19.752Z,20.47
2022-12-08T21:32:46.920Z,20.67
2022-12-08T21:35:13.840Z,20.81
2022-12-08T21:37:40.787Z,20.92
2022-12-08T21:40:08.235Z,21.11
2022-12-08T21:42:44.675Z,21.17
2022-12-08T21:45:11.874Z,21.26
2022-12-08T21:47:38.920Z,21.34
2022-12-08T21:50:06.409Z,21.42
2022-12-08T21:52:33.431Z,21.47
2022-12-08T21:55:00.305Z,21.55
2022-12-08T21:57:27.278Z,21.60
2022-12-08T21:59:54.389Z,20.07
2022-12-08T22:02:22.826Z,18.58
2022-12-08T22:04:50.260Z,18.43
2022-12-08T22:07:17.446Z,19.59
2022-12-08T22:09:44.281Z,20.28
2022-12-08T22:12:16.450Z,20.52
2022-12-08T22:14:43.224Z,20.68
2022-12-08T22:17:10.139Z,20.94
2022-12-08T22:19:37.459Z,21.01
2022-12-08T22:22:04.404Z,21.11
2022-12-08T22:24:31.360Z,21.21
2022-12-08T22:26:58.330Z,21.35
2022-12-08T22:29:25.321Z,21.42
2022-12-08T22:31:52.342Z,21.49
2022-12-08T22:34:19.219Z,21.53
2022-12-08T22:36:46.070Z,21.63
2022-12-08T22:39:12.912Z,20.99
2022-12-08T22:41:39.949Z,19.17
2022-12-08T22:44:06.963Z,17.98
2022-12-08T22:46:33.812Z,18.98
2022-12-08T22:49:00.693Z,19.79
2022-12-08T22:51:27.439Z,20.40
2022-12-08T22:53:54.339Z,20.59
2022-12-08T22:56:21.406Z,20.76
2022-12-08T22:58:48.400Z,20.87
2022-12-08T23:01:15.403Z,21.02
2022-12-08T23:03:42.422Z,21.17
2022-12-08T23:06:09.507Z,21.28
2022-12-08T23:08:36.627Z,21.30
2022-12-08T23:11:03.489Z,21.39
2022-12-08T23:13:30.338Z,21.48
2022-12-08T23:15:57.419Z,21.53
2022-12-08T23:18:24.405Z,21.58
2022-12-08T23:20:51.167Z,19.55
2022-12-08T23:23:17.898Z,17.86
2022-12-08T23:25:44.833Z,17.78
2022-12-08T23:28:11.763Z,19.07
2022-12-08T23:30:38.686Z,19.88
2022-12-08T23:33:05.649Z,20.29
2022-12-08T23:35:32.771Z,20.50
2022-12-08T23:37:59.547Z,20.72
2022-12-08T23:40:26.319Z,20.76
2022-12-08T23:42:53.069Z,20.97
2022-12-08T23:45:19.884Z,21.03
2022-12-08T23:47:46.674Z,21.15
2022-12-08T23:50:13.618Z,21.22
2022-12-08T23:52:40.636Z,21.31
2022-12-08T23:55:07.434Z,21.41
2022-12-08T23:57:34.169Z,21.47
